Hlavní strana
METAR-TAF:

METAR-TAF

Letiště :

Honningsvåg, Norsko

zeměpisná šířka: 71-01N, zeměpisná délka: 025-59E, výška: 1 m

Aktuální stav počasí

Zpráva byla vytvořena před 6 hodinami a 3 minutami, v 21:50 UTC
Západoseverozápadní vítr 16 kt
Teplota -3°C
Vlhkost vzduchu 58%
Tlak 1007 hPa
Viditelnost 10 km a více

METAR: ENHV 202150Z 30016KT 9999 NSC M03/M10 Q1007

Čas: 04:53 (03:53 UTC)


TAF: chybějící

Stav a předpovědi počasí z více než 4 000 letišť (zprávy METAR a TAF).

Červené a žluté tečky na mapě představují dostupné meteorologické stanice.

Když kurzor umístíte na tečku, zobrazí se název stanice.

Pak kliknutím zobrazíte stav a předpověď počasí.

Chcete-li změnit mapu, kliknutím na zelené tlačítko se znaménkem +mapu přiblížíte, kliknutím na zelené tlačítko se znaménkem – mapu oddálíte a kliknutím na zelené šipky přejdete na sousední mapy.


METAR-TAF: